sensor_id;sensor_type;location;lat;lon;timestamp;pressure;altitude;pressure_sealevel;temperature;humidity
82621;BME280;72291;55.002;-1.592;2024-03-02T00:00:28;98439.27;;;2.08;62.23
82621;BME280;72291;55.002;-1.592;2024-03-02T00:02:50;98428.29;;;3.10;59.59
82621;BME280;72291;55.002;-1.592;2024-03-02T00:05:17;98426.76;;;3.65;57.39
82621;BME280;72291;55.002;-1.592;2024-03-02T00:07:42;98431.10;;;2.88;59.53
82621;BME280;72291;55.002;-1.592;2024-03-02T00:10:09;98434.72;;;1.63;62.28
82621;BME280;72291;55.002;-1.592;2024-03-02T00:12:37;98427.44;;;2.33;60.57
82621;BME280;72291;55.002;-1.592;2024-03-02T00:14:57;98428.62;;;2.20;60.29
82621;BME280;72291;55.002;-1.592;2024-03-02T00:17:25;98432.35;;;1.65;61.45
82621;BME280;72291;55.002;-1.592;2024-03-02T00:19:49;98435.08;;;1.35;62.04
82621;BME280;72291;55.002;-1.592;2024-03-02T00:22:13;98432.73;;;2.28;60.26
82621;BME280;72291;55.002;-1.592;2024-03-02T00:24:39;98437.48;;;2.56;59.93
82621;BME280;72291;55.002;-1.592;2024-03-02T00:27:05;98443.48;;;2.89;58.54
82621;BME280;72291;55.002;-1.592;2024-03-02T00:29:30;98449.56;;;3.46;56.57
82621;BME280;72291;55.002;-1.592;2024-03-02T00:32:02;98468.64;;;1.90;60.51
82621;BME280;72291;55.002;-1.592;2024-03-02T00:34:20;98471.97;;;2.09;59.82
82621;BME280;72291;55.002;-1.592;2024-03-02T00:39:17;98467.55;;;1.91;59.75
82621;BME280;72291;55.002;-1.592;2024-03-02T00:41:36;98468.66;;;1.84;60.27
82621;BME280;72291;55.002;-1.592;2024-03-02T00:44:04;98468.99;;;1.06;61.20
82621;BME280;72291;55.002;-1.592;2024-03-02T00:46:30;98465.63;;;2.30;59.42
82621;BME280;72291;55.002;-1.592;2024-03-02T00:48:55;98462.20;;;1.68;61.54
82621;BME280;72291;55.002;-1.592;2024-03-02T00:53:44;98445.63;;;2.33;60.72
82621;BME280;72291;55.002;-1.592;2024-03-02T00:56:12;98440.82;;;1.61;60.38
82621;BME280;72291;55.002;-1.592;2024-03-02T00:58:40;98432.80;;;2.47;60.08
82621;BME280;72291;55.002;-1.592;2024-03-02T01:01:06;98426.24;;;3.63;55.24
82621;BME280;72291;55.002;-1.592;2024-03-02T01:03:26;98423.48;;;4.03;54.58
82621;BME280;72291;55.002;-1.592;2024-03-02T01:05:52;98427.81;;;3.34;54.96
82621;BME280;72291;55.002;-1.592;2024-03-02T01:08:17;98425.81;;;4.08;54.76
82621;BME280;72291;55.002;-1.592;2024-03-02T01:10:43;98416.92;;;5.50;51.02
82621;BME280;72291;55.002;-1.592;2024-03-02T01:13:08;98412.57;;;5.41;50.50
82621;BME280;72291;55.002;-1.592;2024-03-02T01:15:33;98404.87;;;5.21;50.80
82621;BME280;72291;55.002;-1.592;2024-03-02T01:17:59;98408.56;;;3.47;52.69
82621;BME280;72291;55.002;-1.592;2024-03-02T01:20:26;98417.48;;;3.32;54.88
82621;BME280;72291;55.002;-1.592;2024-03-02T01:22:50;98417.32;;;4.22;52.81
82621;BME280;72291;55.002;-1.592;2024-03-02T01:25:15;98428.21;;;2.46;56.70
82621;BME280;72291;55.002;-1.592;2024-03-02T01:27:41;98424.98;;;3.31;55.67
82621;BME280;72291;55.002;-1.592;2024-03-02T01:30:07;98437.61;;;1.42;58.24
82621;BME280;72291;55.002;-1.592;2024-03-02T01:32:32;98441.26;;;2.62;57.73
82621;BME280;72291;55.002;-1.592;2024-03-02T01:34:58;98451.25;;;2.07;57.75
82621;BME280;72291;55.002;-1.592;2024-03-02T01:37:23;98452.19;;;1.66;58.08
82621;BME280;72291;55.002;-1.592;2024-03-02T01:39:48;98451.30;;;1.66;58.75
82621;BME280;72291;55.002;-1.592;2024-03-02T01:42:14;98453.57;;;0.60;61.32
82621;BME280;72291;55.002;-1.592;2024-03-02T01:44:41;98438.58;;;3.63;54.52
82621;BME280;72291;55.002;-1.592;2024-03-02T01:47:05;98433.71;;;4.21;52.68
82621;BME280;72291;55.002;-1.592;2024-03-02T01:49:31;98432.65;;;3.52;53.17
82621;BME280;72291;55.002;-1.592;2024-03-02T01:51:56;98441.58;;;2.25;56.28
82621;BME280;72291;55.002;-1.592;2024-03-02T01:54:22;98426.64;;;4.72;50.66
82621;BME280;72291;55.002;-1.592;2024-03-02T01:56:48;98426.11;;;4.79;49.90
82621;BME280;72291;55.002;-1.592;2024-03-02T01:59:13;98419.80;;;5.50;49.18
82621;BME280;72291;55.002;-1.592;2024-03-02T02:01:39;98424.33;;;4.55;49.56
82621;BME280;72291;55.002;-1.592;2024-03-02T02:04:04;98423.72;;;5.93;47.54
82621;BME280;72291;55.002;-1.592;2024-03-02T02:06:29;98421.43;;;5.37;48.04
82621;BME280;72291;55.002;-1.592;2024-03-02T02:08:55;98417.62;;;5.58;47.65
82621;BME280;72291;55.002;-1.592;2024-03-02T02:11:20;98414.24;;;5.81;47.53
82621;BME280;72291;55.002;-1.592;2024-03-02T02:13:45;98413.25;;;5.13;48.83
82621;BME280;72291;55.002;-1.592;2024-03-02T02:16:11;98417.75;;;4.12;50.79
82621;BME280;72291;55.002;-1.592;2024-03-02T02:18:36;98416.35;;;4.88;49.01
82621;BME280;72291;55.002;-1.592;2024-03-02T02:21:03;98416.98;;;5.44;47.21
82621;BME280;72291;55.002;-1.592;2024-03-02T02:23:27;98413.80;;;6.00;45.80
82621;BME280;72291;55.002;-1.592;2024-03-02T02:25:53;98409.46;;;5.99;45.71
82621;BME280;72291;55.002;-1.592;2024-03-02T02:28:25;98408.11;;;5.22;47.10
82621;BME280;72291;55.002;-1.592;2024-03-02T02:30:44;98403.54;;;5.64;46.99
82621;BME280;72291;55.002;-1.592;2024-03-02T02:33:09;98409.02;;;4.40;48.99
82621;BME280;72291;55.002;-1.592;2024-03-02T02:35:35;98408.15;;;3.33;50.59
82621;BME280;72291;55.002;-1.592;2024-03-02T02:38:02;98413.08;;;3.04;51.96
82621;BME280;72291;55.002;-1.592;2024-03-02T02:40:25;98408.17;;;2.75;52.66
82621;BME280;72291;55.002;-1.592;2024-03-02T02:42:51;98402.60;;;3.29;51.79
82621;BME280;72291;55.002;-1.592;2024-03-02T02:45:18;98393.98;;;4.85;48.07
82621;BME280;72291;55.002;-1.592;2024-03-02T02:47:42;98390.78;;;5.61;46.88
82621;BME280;72291;55.002;-1.592;2024-03-02T02:50:08;98385.88;;;5.43;47.30
82621;BME280;72291;55.002;-1.592;2024-03-02T02:52:33;98386.85;;;5.52;47.29
82621;BME280;72291;55.002;-1.592;2024-03-02T02:54:58;98386.16;;;5.27;46.99
82621;BME280;72291;55.002;-1.592;2024-03-02T02:57:25;98391.85;;;4.40;48.60
82621;BME280;72291;55.002;-1.592;2024-03-02T02:59:49;98401.50;;;2.46;54.02
82621;BME280;72291;55.002;-1.592;2024-03-02T03:02:16;98402.80;;;2.53;52.38
82621;BME280;72291;55.002;-1.592;2024-03-02T03:04:40;98402.53;;;2.16;53.82
82621;BME280;72291;55.002;-1.592;2024-03-02T03:07:06;98390.45;;;3.92;49.93
82621;BME280;72291;55.002;-1.592;2024-03-02T03:09:33;98396.26;;;3.21;51.64
82621;BME280;72291;55.002;-1.592;2024-03-02T03:11:57;98391.77;;;3.63;51.42
82621;BME280;72291;55.002;-1.592;2024-03-02T03:14:27;98392.89;;;3.96;49.79
82621;BME280;72291;55.002;-1.592;2024-03-02T03:16:48;98386.50;;;5.84;46.58
82621;BME280;72291;55.002;-1.592;2024-03-02T03:19:13;98384.28;;;5.55;46.77
82621;BME280;72291;55.002;-1.592;2024-03-02T03:21:38;98394.30;;;2.92;50.98
82621;BME280;72291;55.002;-1.592;2024-03-02T03:24:04;98392.41;;;3.35;51.50
82621;BME280;72291;55.002;-1.592;2024-03-02T03:26:29;98394.69;;;3.07;51.09
82621;BME280;72291;55.002;-1.592;2024-03-02T03:28:55;98400.27;;;2.04;54.22
82621;BME280;72291;55.002;-1.592;2024-03-02T03:31:20;98382.26;;;4.82;48.89
82621;BME280;72291;55.002;-1.592;2024-03-02T03:33:46;98384.25;;;3.98;50.20
82621;BME280;72291;55.002;-1.592;2024-03-02T03:36:11;98389.40;;;3.45;51.31
82621;BME280;72291;55.002;-1.592;2024-03-02T03:38:37;98379.36;;;4.93;47.79
82621;BME280;72291;55.002;-1.592;2024-03-02T03:41:02;98383.07;;;4.23;49.32
82621;BME280;72291;55.002;-1.592;2024-03-02T03:43:28;98383.70;;;3.88;49.85
82621;BME280;72291;55.002;-1.592;2024-03-02T03:45:53;98378.08;;;4.64;48.09
82621;BME280;72291;55.002;-1.592;2024-03-02T03:48:19;98379.67;;;4.28;48.68
82621;BME280;72291;55.002;-1.592;2024-03-02T03:50:44;98378.88;;;5.04;46.95
82621;BME280;72291;55.002;-1.592;2024-03-02T03:53:09;98376.17;;;3.88;49.47
82621;BME280;72291;55.002;-1.592;2024-03-02T03:55:35;98377.39;;;4.09;49.92
82621;BME280;72291;55.002;-1.592;2024-03-02T03:58:03;98373.85;;;4.24;48.38
82621;BME280;72291;55.002;-1.592;2024-03-02T04:00:26;98368.43;;;5.38;47.13
82621;BME280;72291;55.002;-1.592;2024-03-02T04:02:52;98370.45;;;4.27;48.57
82621;BME280;72291;55.002;-1.592;2024-03-02T04:05:17;98364.17;;;3.33;49.58
82621;BME280;72291;55.002;-1.592;2024-03-02T04:07:42;98368.66;;;2.73;51.62
82621;BME280;72291;55.002;-1.592;2024-03-02T04:10:10;98362.48;;;3.35;50.65
82621;BME280;72291;55.002;-1.592;2024-03-02T04:12:34;98364.99;;;2.58;52.54
82621;BME280;72291;55.002;-1.592;2024-03-02T04:15:00;98365.34;;;2.98;51.93
82621;BME280;72291;55.002;-1.592;2024-03-02T04:17:34;98366.03;;;2.48;52.19
82621;BME280;72291;55.002;-1.592;2024-03-02T04:19:49;98361.82;;;2.28;52.47
82621;BME280;72291;55.002;-1.592;2024-03-02T04:22:16;98369.85;;;2.47;53.33
82621;BME280;72291;55.002;-1.592;2024-03-02T04:24:40;98374.93;;;1.77;54.40
82621;BME280;72291;55.002;-1.592;2024-03-02T04:27:06;98382.92;;;0.93;56.39
82621;BME280;72291;55.002;-1.592;2024-03-02T04:29:32;98387.68;;;1.88;55.15
82621;BME280;72291;55.002;-1.592;2024-03-02T04:31:56;98387.13;;;1.94;54.84
82621;BME280;72291;55.002;-1.592;2024-03-02T04:34:23;98392.14;;;2.00;53.91
82621;BME280;72291;55.002;-1.592;2024-03-02T04:36:47;98401.35;;;1.57;55.33
82621;BME280;72291;55.002;-1.592;2024-03-02T04:39:13;98400.99;;;2.54;54.17
82621;BME280;72291;55.002;-1.592;2024-03-02T04:41:38;98395.45;;;3.10;52.80
82621;BME280;72291;55.002;-1.592;2024-03-02T04:44:06;98401.00;;;2.64;53.66
82621;BME280;72291;55.002;-1.592;2024-03-02T04:46:31;98400.60;;;2.14;54.75
82621;BME280;72291;55.002;-1.592;2024-03-02T04:48:54;98411.02;;;1.00;59.71
82621;BME280;72291;55.002;-1.592;2024-03-02T04:51:22;98409.92;;;0.64;61.01
82621;BME280;72291;55.002;-1.592;2024-03-02T04:54:01;98408.03;;;0.38;62.62
82621;BME280;72291;55.002;-1.592;2024-03-02T04:56:10;98403.75;;;0.58;62.00
82621;BME280;72291;55.002;-1.592;2024-03-02T04:58:37;98406.33;;;0.62;61.99
82621;BME280;72291;55.002;-1.592;2024-03-02T05:01:01;98412.45;;;-0.90;65.82
82621;BME280;72291;55.002;-1.592;2024-03-02T05:03:26;98412.78;;;-0.91;66.41
82621;BME280;72291;55.002;-1.592;2024-03-02T05:05:51;98417.53;;;-0.88;65.42
82621;BME280;72291;55.002;-1.592;2024-03-02T05:08:17;98417.12;;;-0.75;64.82
82621;BME280;72291;55.002;-1.592;2024-03-02T05:10:42;98415.34;;;-0.30;64.75
82621;BME280;72291;55.002;-1.592;2024-03-02T05:13:07;98415.81;;;0.34;62.88
82621;BME280;72291;55.002;-1.592;2024-03-02T05:15:33;98414.32;;;-0.23;62.90
82621;BME280;72291;55.002;-1.592;2024-03-02T05:17:59;98416.85;;;-0.79;64.25
82621;BME280;72291;55.002;-1.592;2024-03-02T05:20:28;98420.17;;;-0.49;63.74
82621;BME280;72291;55.002;-1.592;2024-03-02T05:22:50;98420.38;;;-0.27;63.00
82621;BME280;72291;55.002;-1.592;2024-03-02T05:25:23;98429.41;;;-1.33;66.45
82621;BME280;72291;55.002;-1.592;2024-03-02T05:27:40;98423.46;;;-0.32;64.94
82621;BME280;72291;55.002;-1.592;2024-03-02T05:30:22;98422.00;;;0.13;62.77
82621;BME280;72291;55.002;-1.592;2024-03-02T05:32:31;98423.02;;;-0.49;63.97
82621;BME280;72291;55.002;-1.592;2024-03-02T05:34:58;98419.55;;;1.47;59.93
82621;BME280;72291;55.002;-1.592;2024-03-02T05:37:22;98424.63;;;-0.17;63.42
82621;BME280;72291;55.002;-1.592;2024-03-02T05:39:47;98427.32;;;-0.72;65.91
82621;BME280;72291;55.002;-1.592;2024-03-02T05:42:13;98430.98;;;-1.61;67.56
82621;BME280;72291;55.002;-1.592;2024-03-02T05:44:38;98426.05;;;-0.34;65.09
82621;BME280;72291;55.002;-1.592;2024-03-02T05:47:06;98425.02;;;-0.68;65.16
82621;BME280;72291;55.002;-1.592;2024-03-02T05:49:29;98431.01;;;-0.36;64.45
82621;BME280;72291;55.002;-1.592;2024-03-02T05:51:55;98431.60;;;0.73;61.27
82621;BME280;72291;55.002;-1.592;2024-03-02T05:54:21;98444.15;;;-0.04;62.93
82621;BME280;72291;55.002;-1.592;2024-03-02T05:56:46;98444.15;;;-0.49;62.58
82621;BME280;72291;55.002;-1.592;2024-03-02T05:59:13;98435.89;;;1.46;58.83
82621;BME280;72291;55.002;-1.592;2024-03-02T06:01:38;98437.16;;;0.77;59.49
82621;BME280;72291;55.002;-1.592;2024-03-02T06:04:03;98442.45;;;0.91;60.06
82621;BME280;72291;55.002;-1.592;2024-03-02T06:06:28;98448.80;;;0.38;61.17
82621;BME280;72291;55.002;-1.592;2024-03-02T06:08:53;98451.94;;;1.42;59.00
82621;BME280;72291;55.002;-1.592;2024-03-02T06:11:20;98450.49;;;3.75;55.35
82621;BME280;72291;55.002;-1.592;2024-03-02T06:13:45;98451.92;;;3.33;54.75
82621;BME280;72291;55.002;-1.592;2024-03-02T06:16:10;98464.36;;;2.06;56.43
82621;BME280;72291;55.002;-1.592;2024-03-02T06:18:35;98467.03;;;1.79;57.31
82621;BME280;72291;55.002;-1.592;2024-03-02T06:21:01;98462.41;;;2.48;56.34
82621;BME280;72291;55.002;-1.592;2024-03-02T06:23:26;98460.84;;;2.55;55.71
82621;BME280;72291;55.002;-1.592;2024-03-02T06:25:52;98463.37;;;2.58;55.25
82621;BME280;72291;55.002;-1.592;2024-03-02T06:28:18;98463.46;;;4.45;52.21
82621;BME280;72291;55.002;-1.592;2024-03-02T06:30:43;98465.78;;;3.14;54.49
82621;BME280;72291;55.002;-1.592;2024-03-02T06:33:08;98466.31;;;3.55;54.22
82621;BME280;72291;55.002;-1.592;2024-03-02T06:35:36;98475.05;;;2.46;55.83
82621;BME280;72291;55.002;-1.592;2024-03-02T06:37:59;98474.58;;;1.93;57.20
82621;BME280;72291;55.002;-1.592;2024-03-02T06:40:25;98472.00;;;3.14;54.69
82621;BME280;72291;55.002;-1.592;2024-03-02T06:42:50;98475.31;;;2.90;55.49
82621;BME280;72291;55.002;-1.592;2024-03-02T06:45:15;98475.93;;;2.79;55.60
82621;BME280;72291;55.002;-1.592;2024-03-02T06:47:41;98475.15;;;3.61;54.25
82621;BME280;72291;55.002;-1.592;2024-03-02T06:50:06;98482.31;;;2.51;55.75
82621;BME280;72291;55.002;-1.592;2024-03-02T06:52:31;98476.85;;;4.05;53.56
82621;BME280;72291;55.002;-1.592;2024-03-02T06:54:57;98484.02;;;3.16;54.40
82621;BME280;72291;55.002;-1.592;2024-03-02T06:57:22;98486.61;;;3.24;54.94
82621;BME280;72291;55.002;-1.592;2024-03-02T07:02:14;98485.40;;;4.59;52.44
82621;BME280;72291;55.002;-1.592;2024-03-02T07:04:39;98490.18;;;2.99;55.47
82621;BME280;72291;55.002;-1.592;2024-03-02T07:07:05;98497.07;;;2.34;56.76
82621;BME280;72291;55.002;-1.592;2024-03-02T07:09:45;98493.78;;;2.92;55.80
82621;BME280;72291;55.002;-1.592;2024-03-02T07:11:56;98496.14;;;3.04;56.24
82621;BME280;72291;55.002;-1.592;2024-03-02T07:14:21;98494.68;;;2.80;56.36
82621;BME280;72291;55.002;-1.592;2024-03-02T07:16:47;98498.56;;;2.15;57.47
82621;BME280;72291;55.002;-1.592;2024-03-02T07:19:12;98497.90;;;0.83;60.73
82621;BME280;72291;55.002;-1.592;2024-03-02T07:21:38;98495.68;;;1.16;61.04
82621;BME280;72291;55.002;-1.592;2024-03-02T07:24:07;98500.88;;;1.51;60.22
82621;BME280;72291;55.002;-1.592;2024-03-02T07:26:30;98504.97;;;1.95;59.17
82621;BME280;72291;55.002;-1.592;2024-03-02T07:28:55;98507.36;;;2.00;59.52
82621;BME280;72291;55.002;-1.592;2024-03-02T07:31:21;98511.86;;;1.80;59.83
82621;BME280;72291;55.002;-1.592;2024-03-02T07:33:45;98510.49;;;2.43;58.87
82621;BME280;72291;55.002;-1.592;2024-03-02T07:36:11;98512.01;;;3.28;56.63
82621;BME280;72291;55.002;-1.592;2024-03-02T07:38:35;98522.97;;;1.66;59.45
82621;BME280;72291;55.002;-1.592;2024-03-02T07:41:00;98508.22;;;4.11;54.52
82621;BME280;72291;55.002;-1.592;2024-03-02T07:43:25;98506.59;;;4.80;53.14
82621;BME280;72291;55.002;-1.592;2024-03-02T07:45:51;98504.68;;;4.83;52.64
82621;BME280;72291;55.002;-1.592;2024-03-02T07:48:17;98517.35;;;3.14;55.45
82621;BME280;72291;55.002;-1.592;2024-03-02T07:50:42;98510.10;;;3.86;54.11
82621;BME280;72291;55.002;-1.592;2024-03-02T07:53:08;98508.48;;;5.13;51.51
82621;BME280;72291;55.002;-1.592;2024-03-02T07:55:34;98511.27;;;4.20;52.48
82621;BME280;72291;55.002;-1.592;2024-03-02T07:58:00;98506.91;;;4.75;52.06
82621;BME280;72291;55.002;-1.592;2024-03-02T08:00:26;98510.48;;;3.93;54.08
82621;BME280;72291;55.002;-1.592;2024-03-02T08:02:52;98515.19;;;3.21;55.29
82621;BME280;72291;55.002;-1.592;2024-03-02T08:05:15;98518.23;;;2.04;56.75
82621;BME280;72291;55.002;-1.592;2024-03-02T08:07:40;98514.32;;;3.59;54.44
82621;BME280;72291;55.002;-1.592;2024-03-02T08:10:06;98518.53;;;5.10;52.57
82621;BME280;72291;55.002;-1.592;2024-03-02T08:12:31;98530.14;;;3.26;54.53
82621;BME280;72291;55.002;-1.592;2024-03-02T08:14:56;98535.12;;;4.64;51.85
82621;BME280;72291;55.002;-1.592;2024-03-02T08:17:21;98543.52;;;2.09;56.71
82621;BME280;72291;55.002;-1.592;2024-03-02T08:19:47;98533.99;;;3.94;54.31
82621;BME280;72291;55.002;-1.592;2024-03-02T08:22:22;98530.65;;;3.96;53.38
82621;BME280;72291;55.002;-1.592;2024-03-02T08:24:38;98521.16;;;5.42;51.81
82621;BME280;72291;55.002;-1.592;2024-03-02T08:27:06;98519.30;;;6.48;48.35
82621;BME280;72291;55.002;-1.592;2024-03-02T08:31:58;98536.63;;;5.83;51.64
82621;BME280;72291;55.002;-1.592;2024-03-02T08:34:22;98543.58;;;4.52;52.96
82621;BME280;72291;55.002;-1.592;2024-03-02T08:36:51;98548.48;;;4.47;53.66
82621;BME280;72291;55.002;-1.592;2024-03-02T08:39:22;98554.74;;;3.41;55.46
82621;BME280;72291;55.002;-1.592;2024-03-02T08:41:36;98546.96;;;5.60;52.39
82621;BME280;72291;55.002;-1.592;2024-03-02T08:44:01;98550.94;;;5.71;51.21
82621;BME280;72291;55.002;-1.592;2024-03-02T08:46:26;98553.87;;;5.72;52.92
82621;BME280;72291;55.002;-1.592;2024-03-02T08:48:53;98552.72;;;5.27;52.15
82621;BME280;72291;55.002;-1.592;2024-03-02T08:51:18;98557.56;;;3.85;55.70
82621;BME280;72291;55.002;-1.592;2024-03-02T08:53:44;98550.14;;;5.49;51.88
82621;BME280;72291;55.002;-1.592;2024-03-02T08:56:09;98552.03;;;5.65;52.03
82621;BME280;72291;55.002;-1.592;2024-03-02T08:58:34;98554.32;;;6.81;49.98
82621;BME280;72291;55.002;-1.592;2024-03-02T09:00:59;98563.70;;;4.58;53.51
82621;BME280;72291;55.002;-1.592;2024-03-02T09:03:25;98553.41;;;6.31;50.89
82621;BME280;72291;55.002;-1.592;2024-03-02T09:05:50;98555.04;;;5.74;51.95
82621;BME280;72291;55.002;-1.592;2024-03-02T09:08:16;98557.14;;;5.32;52.83
82621;BME280;72291;55.002;-1.592;2024-03-02T09:10:41;98556.40;;;5.56;52.04
82621;BME280;72291;55.002;-1.592;2024-03-02T09:13:06;98560.91;;;5.96;52.13
82621;BME280;72291;55.002;-1.592;2024-03-02T09:15:32;98558.84;;;6.01;51.73
82621;BME280;72291;55.002;-1.592;2024-03-02T09:17:57;98564.98;;;5.07;53.37
82621;BME280;72291;55.002;-1.592;2024-03-02T09:20:23;98568.98;;;5.18;53.67
82621;BME280;72291;55.002;-1.592;2024-03-02T09:22:48;98567.83;;;5.76;52.17
82621;BME280;72291;55.002;-1.592;2024-03-02T09:25:15;98567.25;;;5.92;51.92
82621;BME280;72291;55.002;-1.592;2024-03-02T09:27:39;98567.15;;;5.21;53.37
82621;BME280;72291;55.002;-1.592;2024-03-02T09:30:06;98562.65;;;4.83;53.81
82621;BME280;72291;55.002;-1.592;2024-03-02T09:32:29;98569.29;;;4.41;54.67
82621;BME280;72291;55.002;-1.592;2024-03-02T09:35:12;98566.97;;;5.10;54.03
82621;BME280;72291;55.002;-1.592;2024-03-02T09:37:20;98563.02;;;5.50;53.07
82621;BME280;72291;55.002;-1.592;2024-03-02T09:39:45;98560.20;;;6.28;52.20
82621;BME280;72291;55.002;-1.592;2024-03-02T09:42:11;98560.29;;;4.80;54.26
82621;BME280;72291;55.002;-1.592;2024-03-02T09:44:35;98565.63;;;4.69;54.74
82621;BME280;72291;55.002;-1.592;2024-03-02T09:47:01;98564.76;;;5.89;53.75
82621;BME280;72291;55.002;-1.592;2024-03-02T09:49:26;98563.49;;;5.34;54.58
82621;BME280;72291;55.002;-1.592;2024-03-02T09:51:51;98566.10;;;5.01;54.97
82621;BME280;72291;55.002;-1.592;2024-03-02T09:54:16;98573.54;;;5.69;55.02
82621;BME280;72291;55.002;-1.592;2024-03-02T09:56:43;98574.70;;;5.42;54.38
82621;BME280;72291;55.002;-1.592;2024-03-02T09:59:20;98577.97;;;6.13;52.50
82621;BME280;72291;55.002;-1.592;2024-03-02T10:01:39;98577.37;;;5.87;53.44
82621;BME280;72291;55.002;-1.592;2024-03-02T10:03:59;98576.92;;;6.13;53.52
82621;BME280;72291;55.002;-1.592;2024-03-02T10:06:24;98575.90;;;6.83;51.57
82621;BME280;72291;55.002;-1.592;2024-03-02T10:08:49;98576.27;;;6.09;53.10
82621;BME280;72291;55.002;-1.592;2024-03-02T10:11:27;98577.85;;;6.78;52.92
82621;BME280;72291;55.002;-1.592;2024-03-02T10:13:40;98575.92;;;6.33;53.00
82621;BME280;72291;55.002;-1.592;2024-03-02T10:16:11;98576.19;;;6.23;53.08
82621;BME280;72291;55.002;-1.592;2024-03-02T10:18:36;98573.60;;;6.85;52.43
82621;BME280;72291;55.002;-1.592;2024-03-02T10:20:55;98574.90;;;6.51;52.53
82621;BME280;72291;55.002;-1.592;2024-03-02T10:23:21;98577.71;;;5.89;54.71
82621;BME280;72291;55.002;-1.592;2024-03-02T10:25:48;98577.43;;;5.77;54.65
82621;BME280;72291;55.002;-1.592;2024-03-02T10:28:12;98582.98;;;5.72;55.52
82621;BME280;72291;55.002;-1.592;2024-03-02T10:30:37;98584.02;;;4.82;58.13
82621;BME280;72291;55.002;-1.592;2024-03-02T10:33:05;98579.56;;;5.61;56.01
82621;BME280;72291;55.002;-1.592;2024-03-02T10:35:29;98577.60;;;5.78;55.33
82621;BME280;72291;55.002;-1.592;2024-03-02T10:37:59;98574.94;;;6.96;53.92
82621;BME280;72291;55.002;-1.592;2024-03-02T10:40:22;98575.05;;;6.77;55.60
82621;BME280;72291;55.002;-1.592;2024-03-02T10:42:46;98575.71;;;6.11;56.44
82621;BME280;72291;55.002;-1.592;2024-03-02T10:45:12;98575.84;;;5.24;58.21
82621;BME280;72291;55.002;-1.592;2024-03-02T10:47:37;98579.15;;;6.40;56.40
82621;BME280;72291;55.002;-1.592;2024-03-02T10:50:04;98578.01;;;5.93;57.64
82621;BME280;72291;55.002;-1.592;2024-03-02T10:52:35;98579.91;;;6.20;55.28
82621;BME280;72291;55.002;-1.592;2024-03-02T10:54:53;98576.16;;;5.47;57.39
82621;BME280;72291;55.002;-1.592;2024-03-02T10:57:21;98577.52;;;5.61;58.03
82621;BME280;72291;55.002;-1.592;2024-03-02T10:59:51;98583.45;;;6.31;57.24
82621;BME280;72291;55.002;-1.592;2024-03-02T11:02:12;98583.75;;;6.02;57.37
82621;BME280;72291;55.002;-1.592;2024-03-02T11:04:35;98589.88;;;5.41;58.58
82621;BME280;72291;55.002;-1.592;2024-03-02T11:07:02;98582.24;;;7.11;55.37
82621;BME280;72291;55.002;-1.592;2024-03-02T11:09:27;98585.65;;;6.37;56.53
82621;BME280;72291;55.002;-1.592;2024-03-02T11:11:58;98587.88;;;5.59;58.91
82621;BME280;72291;55.002;-1.592;2024-03-02T11:14:17;98584.04;;;7.01;56.45
82621;BME280;72291;55.002;-1.592;2024-03-02T11:16:42;98586.88;;;5.19;58.96
82621;BME280;72291;55.002;-1.592;2024-03-02T11:19:11;98583.95;;;5.11;60.00
82621;BME280;72291;55.002;-1.592;2024-03-02T11:21:47;98585.69;;;5.73;58.23
82621;BME280;72291;55.002;-1.592;2024-03-02T11:23:57;98583.42;;;7.09;55.47
82621;BME280;72291;55.002;-1.592;2024-03-02T11:26:23;98589.30;;;6.21;58.14
82621;BME280;72291;55.002;-1.592;2024-03-02T11:28:48;98596.03;;;5.63;59.65
82621;BME280;72291;55.002;-1.592;2024-03-02T11:31:13;98606.22;;;3.49;65.15
82621;BME280;72291;55.002;-1.592;2024-03-02T11:33:38;98605.97;;;3.66;64.48
82621;BME280;72291;55.002;-1.592;2024-03-02T11:36:04;98597.14;;;5.22;60.65
82621;BME280;72291;55.002;-1.592;2024-03-02T11:38:31;98594.12;;;5.98;58.96
82621;BME280;72291;55.002;-1.592;2024-03-02T11:40:54;98600.63;;;6.28;58.71
82621;BME280;72291;55.002;-1.592;2024-03-02T11:43:20;98605.94;;;5.83;60.39
82621;BME280;72291;55.002;-1.592;2024-03-02T11:45:44;98605.33;;;5.53;60.88
82621;BME280;72291;55.002;-1.592;2024-03-02T11:48:11;98603.94;;;5.99;59.92
82621;BME280;72291;55.002;-1.592;2024-03-02T11:53:00;98607.74;;;5.45;61.83
82621;BME280;72291;55.002;-1.592;2024-03-02T11:55:25;98605.28;;;5.75;62.03
82621;BME280;72291;55.002;-1.592;2024-03-02T11:57:52;98602.62;;;5.20;63.14
82621;BME280;72291;55.002;-1.592;2024-03-02T12:00:17;98602.17;;;6.32;60.95
82621;BME280;72291;55.002;-1.592;2024-03-02T12:02:41;98601.03;;;6.24;61.02
82621;BME280;72291;55.002;-1.592;2024-03-02T12:12:34;98586.35;;;7.47;57.29
82621;BME280;72291;55.002;-1.592;2024-03-02T12:14:53;98577.49;;;6.64;58.38
82621;BME280;72291;55.002;-1.592;2024-03-02T12:17:14;98570.05;;;6.47;60.76
82621;BME280;72291;55.002;-1.592;2024-03-02T12:19:42;98574.42;;;6.21;62.24
82621;BME280;72291;55.002;-1.592;2024-03-02T12:22:02;98577.03;;;6.36;61.26
82621;BME280;72291;55.002;-1.592;2024-03-02T12:24:29;98576.59;;;6.91;60.22
82621;BME280;72291;55.002;-1.592;2024-03-02T12:26:53;98575.32;;;6.30;62.58
82621;BME280;72291;55.002;-1.592;2024-03-02T12:29:19;98581.37;;;6.30;62.79
82621;BME280;72291;55.002;-1.592;2024-03-02T12:31:43;98580.43;;;6.99;62.38
82621;BME280;72291;55.002;-1.592;2024-03-02T12:34:08;98573.39;;;7.29;59.51
82621;BME280;72291;55.002;-1.592;2024-03-02T12:36:37;98576.21;;;5.03;63.12
82621;BME280;72291;55.002;-1.592;2024-03-02T12:38:59;98577.18;;;5.58;63.21
82621;BME280;72291;55.002;-1.592;2024-03-02T12:41:23;98579.42;;;6.02;62.27
82621;BME280;72291;55.002;-1.592;2024-03-02T12:43:48;98591.00;;;5.49;63.21
82621;BME280;72291;55.002;-1.592;2024-03-02T12:46:14;98587.94;;;4.88;64.17
82621;BME280;72291;55.002;-1.592;2024-03-02T12:48:39;98576.03;;;5.71;62.38
82621;BME280;72291;55.002;-1.592;2024-03-02T12:51:05;98579.58;;;5.29;64.89
82621;BME280;72291;55.002;-1.592;2024-03-02T12:53:29;98570.35;;;6.52;60.60
82621;BME280;72291;55.002;-1.592;2024-03-02T12:55:54;98568.28;;;6.24;60.42
82621;BME280;72291;55.002;-1.592;2024-03-02T12:58:21;98565.81;;;5.99;60.59
82621;BME280;72291;55.002;-1.592;2024-03-02T13:00:45;98576.66;;;5.41;63.72
82621;BME280;72291;55.002;-1.592;2024-03-02T13:03:12;98583.62;;;4.59;65.51
82621;BME280;72291;55.002;-1.592;2024-03-02T13:05:35;98593.78;;;3.85;67.29
82621;BME280;72291;55.002;-1.592;2024-03-02T13:08:01;98586.98;;;3.77;67.85